M T Basat — 9HNX9 — position and weather

sailwx.info

Track history (hours):
 
Tides and Currents Weather Stations Pressure Air Temp Water Temp Dewpoint Dewpoint Depression Visibility Wind Speed Wind Dir Waves Ship Positions

M T Basat

Last reported at 2017-Nov-10 12:21 UTC. Time now 2017-Nov-21 15:51 UTC.
Position N 36°09' E 014°54'.
Warning: this ship's position is 11 days out of date.

Length 132 m; draft 7.8 m.

Type: Ship (hazmat cat B). MMSI: 249255000.

Date/timePositionNaut miles runAvg speedWind from/ knotsBaromVisibWave heightAir tempDewpointWater temp
2017-Nov-10 12:21N 36°09' E 014°54'411.3
2017-Nov-10 12:00N 36°10' E 014°50'611.3
2017-Nov-10 11:30N 36°12' E 014°43'611.5
2017-Nov-10 11:00N 36°14' E 014°36'611.4
2017-Nov-10 10:30N 36°15' E 014°30'611.6
2017-Nov-10 10:00N 36°17' E 014°23'611.7
2017-Nov-10 09:29N 36°19' E 014°16'611.8
2017-Nov-10 09:00N 36°21' E 014°09'612.0
2017-Nov-10 08:30N 36°22' E 014°02'611.9
2017-Nov-10 08:00N 36°25' E 013°55'612.1
2017-Nov-10 07:29N 36°27' E 013°48'4211.9
2017-Nov-10 03:57N 36°44' E 012°60'511.7
2017-Nov-10 03:30N 36°46' E 012°54'711.1
2017-Nov-10 02:54N 36°49' E 012°46'  
2017-Nov-07 06:25N 36°06' W 004°05'613.6
2017-Nov-07 06:00N 36°06' W 004°12'713.4
2017-Nov-07 05:30N 36°05' W 004°20'713.3
2017-Nov-07 05:00N 36°05' W 004°28'713.1
2017-Nov-07 04:30N 36°04' W 004°37'3113.3
2017-Nov-07 02:09N 36°00' W 005°15'213.4
2017-Nov-07 02:00N 35°60' W 005°17'26610.0
2017-Nov-05 23:27N 38°15' W 010°05'511.8
2017-Nov-05 23:00N 38°20' W 010°06'912.2
2017-Nov-05 22:17N 38°29' W 010°08'312.4
2017-Nov-05 22:00N 38°32' W 010°09'612.1
2017-Nov-05 21:30N 38°38' W 010°10'711.7
2017-Nov-05 20:56N 38°45' W 010°12'912.8
2017-Nov-05 20:15N 38°54' W 010°12'413.1
2017-Nov-05 19:59N 38°57' W 010°12'612.9
2017-Nov-05 19:30N 39°03' W 010°12'60512.0
2017-Nov-03 16:54N 48°40' W 005°58'611.8
2017-Nov-03 16:23N 48°45' W 005°53'511.4
2017-Nov-03 15:55N 48°50' W 005°49'511.0
2017-Nov-03 15:27N 48°54' W 005°44'910.9
2017-Nov-03 14:36N 48°59' W 005°32'210.9
2017-Nov-03 14:23N 49°01' W 005°29'410.9
2017-Nov-03 13:59N 49°03' W 005°24'711.1
2017-Nov-03 13:23N 49°07' W 005°15'411.5
2017-Nov-03 13:00N 49°09' W 005°10'1311.2
2017-Nov-03 11:49N 49°16' W 004°53'4613.3
2017-Nov-03 08:21N 49°38' W 003°50'1012.2
2017-Nov-03 07:32N 49°43' W 003°37'011.8
2017-Nov-03 07:30N 49°43' W 003°36'711.4
2017-Nov-03 06:55N 49°46' W 003°28'410.7
2017-Nov-03 06:30N 49°48' W 003°22'510.4
2017-Nov-03 06:00N 49°51' W 003°15'510.1
2017-Nov-03 05:28N 49°53' W 003°07'510.1
2017-Nov-03 05:00N 49°56' W 003°02'510.4
2017-Nov-03 04:30N 49°58' W 002°54'510.7
2017-Nov-03 04:00N 49°59' W 002°46'3112.9
2017-Nov-03 01:36N 50°08' W 001°59'415.2
2017-Nov-03 01:21N 50°09' W 001°54'515.4
2017-Nov-03 01:00N 50°11' W 001°46'815.4
2017-Nov-03 00:31N 50°13' W 001°34'3813.7
2017-Nov-02 21:44N 50°24' W 000°38'511.2
2017-Nov-02 21:19N 50°25' W 000°30'410.9
2017-Nov-02 20:58N 50°26' W 000°25'510.5
2017-Nov-02 20:30N 50°27' W 000°17'510.2
2017-Nov-02 20:00N 50°28' W 000°10'5 9.9
2017-Nov-02 19:30N 50°30' W 000°02'5 9.7
2017-Nov-02 19:00N 50°31' E 000°05'510.0
2017-Nov-02 18:30N 50°32' E 000°13'510.4
2017-Nov-02 18:00N 50°34' E 000°21'511.0
2017-Nov-02 17:30N 50°35' E 000°29'611.9
2017-Nov-02 17:00N 50°37' E 000°38'612.4
2017-Nov-02 16:30N 50°40' E 000°46'613.0
2017-Nov-02 16:00N 50°44' E 000°55'713.4
2017-Nov-02 15:30N 50°48' E 001°04'713.1
2017-Nov-02 15:00N 50°52' E 001°12'612.6
2017-Nov-02 14:30N 50°56' E 001°20'612.1
2017-Nov-02 14:00N 51°00' E 001°26'611.4
2017-Nov-02 13:30N 51°04' E 001°32'510.6
2017-Nov-02 13:00N 51°08' E 001°38'510.2
2017-Nov-02 12:30N 51°12' E 001°44'5 9.8
2017-Nov-02 12:00N 51°16' E 001°48'5 9.9
2017-Nov-02 11:30N 51°20' E 001°52'510.2
2017-Nov-02 11:00N 51°25' E 001°55'611.0
2017-Nov-02 10:30N 51°29' E 002°00'611.5
2017-Nov-02 10:00N 51°34' E 002°06'4612.1
2017-Nov-02 06:14N 52°02' E 003°04'812.2
2017-Nov-02 05:34N 52°03' E 003°17'212.1
2017-Nov-02 05:23N 52°03' E 003°21'512.0
2017-Nov-02 05:00N 52°04' E 003°28'611.7
2017-Nov-02 04:30N 52°03' E 003°38'611.7
2017-Nov-02 04:00N 52°03' E 003°47'5 9.3
2017-Nov-02 03:30N 52°02' E 003°55'511.0
2017-Nov-02 03:00N 51°60' E 004°03'611.4
2017-Nov-02 02:30N 51°57' E 004°11'5 9.5
2017-Nov-02 02:00N 51°54' E 004°17'1 1.5
2017-Nov-02 01:30N 51°53' E 004°17'0 0.0
2017-Nov-02 00:59N 51°53' E 004°17'0 0.0
2017-Nov-02 00:29N 51°53' E 004°17'0 0.0
2017-Nov-01 23:59N 51°53' E 004°17'0 0.0
2017-Nov-01 23:29N 51°53' E 004°17'0 0.0
2017-Nov-01 22:59N 51°53' E 004°17'0 0.0
2017-Nov-01 22:29N 51°53' E 004°17'0 0.0
2017-Nov-01 21:53N 51°53' E 004°17'0 0.0
2017-Nov-01 21:26N 51°53' E 004°17'0 0.0
2017-Nov-01 20:56N 51°53' E 004°17'0 0.0
2017-Nov-01 20:29N 51°53' E 004°17'0 0.0
2017-Nov-01 19:53N 51°53' E 004°17'0 0.0
2017-Nov-01 19:29N 51°53' E 004°17'0 0.0
2017-Nov-01 18:59N 51°53' E 004°17'0 0.0
2017-Nov-01 18:29N 51°53' E 004°17'2 0.1
2017-Nov-01 01:58N 51°53' E 004°21'0 0.0
2017-Nov-01 01:28N 51°53' E 004°21'0 0.0
2017-Nov-01 00:58N 51°53' E 004°21'0 0.0
2017-Nov-01 00:28N 51°53' E 004°21'0 0.0
2017-Oct-31 23:58N 51°53' E 004°21'0 0.0
2017-Oct-31 23:28N 51°53' E 004°21'0 0.0
2017-Oct-31 22:58N 51°53' E 004°21'0 0.0
2017-Oct-31 22:28N 51°53' E 004°21'0 0.0
2017-Oct-31 21:58N 51°53' E 004°21'0 0.0
2017-Oct-31 21:25N 51°53' E 004°21'0 0.0
2017-Oct-31 20:58N 51°53' E 004°21'0 0.0
2017-Oct-31 20:28N 51°53' E 004°21'0 0.0
2017-Oct-31 19:58N 51°53' E 004°21'0 0.0
2017-Oct-31 19:22N 51°53' E 004°21'0 0.0
2017-Oct-31 18:58N 51°53' E 004°21'0 0.0
2017-Oct-31 18:28N 51°53' E 004°21'0 0.0
2017-Oct-31 17:58N 51°53' E 004°21'0 0.0
2017-Oct-31 17:28N 51°53' E 004°21'0 0.0
2017-Oct-31 16:58N 51°53' E 004°21'0 0.0
2017-Oct-31 16:25N 51°53' E 004°21'0 0.0
2017-Oct-31 15:58N 51°53' E 004°21'0 0.0
2017-Oct-31 15:28N 51°53' E 004°21'0 0.0
2017-Oct-31 14:58N 51°53' E 004°21'0 0.0
2017-Oct-31 14:28N 51°53' E 004°21'0 0.0
2017-Oct-31 13:58N 51°53' E 004°21'0 0.0
2017-Oct-31 13:28N 51°53' E 004°21'0 0.0
2017-Oct-31 12:58N 51°53' E 004°21'0 0.0
2017-Oct-31 12:28N 51°53' E 004°21'  
Track history (hours):
 
Tides and Currents Weather Stations Pressure Air Temp Water Temp Dewpoint Dewpoint Depression Visibility Wind Speed Wind Dir Waves Ship Positions

M T Basat

Last reported at 2017-Nov-10 12:21 UTC. Time now 2017-Nov-21 15:51 UTC.
Position N 36°09' E 014°54'.
Warning: this ship's position is 11 days out of date.

Length 132 m; draft 7.8 m.

Type: Ship (hazmat cat B). MMSI: 249255000.

Date/timePositionNaut miles runAvg speedWind from/ knotsBaromVisibWave heightAir tempDewpointWater temp
2017-Nov-10 12:21N 36°09' E 014°54'411.3
2017-Nov-10 12:00N 36°10' E 014°50'611.3
2017-Nov-10 11:30N 36°12' E 014°43'611.5
2017-Nov-10 11:00N 36°14' E 014°36'611.4
2017-Nov-10 10:30N 36°15' E 014°30'611.6
2017-Nov-10 10:00N 36°17' E 014°23'611.7
2017-Nov-10 09:29N 36°19' E 014°16'611.8
2017-Nov-10 09:00N 36°21' E 014°09'612.0
2017-Nov-10 08:30N 36°22' E 014°02'611.9
2017-Nov-10 08:00N 36°25' E 013°55'612.1
2017-Nov-10 07:29N 36°27' E 013°48'4211.9
2017-Nov-10 03:57N 36°44' E 012°60'511.7
2017-Nov-10 03:30N 36°46' E 012°54'711.1
2017-Nov-10 02:54N 36°49' E 012°46'  
2017-Nov-07 06:25N 36°06' W 004°05'613.6
2017-Nov-07 06:00N 36°06' W 004°12'713.4
2017-Nov-07 05:30N 36°05' W 004°20'713.3
2017-Nov-07 05:00N 36°05' W 004°28'713.1
2017-Nov-07 04:30N 36°04' W 004°37'3113.3
2017-Nov-07 02:09N 36°00' W 005°15'213.4
2017-Nov-07 02:00N 35°60' W 005°17'26610.0
2017-Nov-05 23:27N 38°15' W 010°05'511.8
2017-Nov-05 23:00N 38°20' W 010°06'912.2
2017-Nov-05 22:17N 38°29' W 010°08'312.4
2017-Nov-05 22:00N 38°32' W 010°09'612.1
2017-Nov-05 21:30N 38°38' W 010°10'711.7
2017-Nov-05 20:56N 38°45' W 010°12'912.8
2017-Nov-05 20:15N 38°54' W 010°12'413.1
2017-Nov-05 19:59N 38°57' W 010°12'612.9
2017-Nov-05 19:30N 39°03' W 010°12'60512.0
2017-Nov-03 16:54N 48°40' W 005°58'611.8
2017-Nov-03 16:23N 48°45' W 005°53'511.4
2017-Nov-03 15:55N 48°50' W 005°49'511.0
2017-Nov-03 15:27N 48°54' W 005°44'910.9
2017-Nov-03 14:36N 48°59' W 005°32'210.9
2017-Nov-03 14:23N 49°01' W 005°29'410.9
2017-Nov-03 13:59N 49°03' W 005°24'711.1
2017-Nov-03 13:23N 49°07' W 005°15'411.5
2017-Nov-03 13:00N 49°09' W 005°10'1311.2
2017-Nov-03 11:49N 49°16' W 004°53'4613.3
2017-Nov-03 08:21N 49°38' W 003°50'1012.2
2017-Nov-03 07:32N 49°43' W 003°37'011.8
2017-Nov-03 07:30N 49°43' W 003°36'711.4
2017-Nov-03 06:55N 49°46' W 003°28'410.7
2017-Nov-03 06:30N 49°48' W 003°22'510.4
2017-Nov-03 06:00N 49°51' W 003°15'510.1
2017-Nov-03 05:28N 49°53' W 003°07'510.1
2017-Nov-03 05:00N 49°56' W 003°02'510.4
2017-Nov-03 04:30N 49°58' W 002°54'510.7
2017-Nov-03 04:00N 49°59' W 002°46'3112.9
2017-Nov-03 01:36N 50°08' W 001°59'415.2
2017-Nov-03 01:21N 50°09' W 001°54'515.4
2017-Nov-03 01:00N 50°11' W 001°46'815.4
2017-Nov-03 00:31N 50°13' W 001°34'3813.7
2017-Nov-02 21:44N 50°24' W 000°38'511.2
2017-Nov-02 21:19N 50°25' W 000°30'410.9
2017-Nov-02 20:58N 50°26' W 000°25'510.5
2017-Nov-02 20:30N 50°27' W 000°17'510.2
2017-Nov-02 20:00N 50°28' W 000°10'5 9.9
2017-Nov-02 19:30N 50°30' W 000°02'5 9.7
2017-Nov-02 19:00N 50°31' E 000°05'510.0
2017-Nov-02 18:30N 50°32' E 000°13'510.4
2017-Nov-02 18:00N 50°34' E 000°21'511.0
2017-Nov-02 17:30N 50°35' E 000°29'611.9
2017-Nov-02 17:00N 50°37' E 000°38'612.4
2017-Nov-02 16:30N 50°40' E 000°46'613.0
2017-Nov-02 16:00N 50°44' E 000°55'713.4
2017-Nov-02 15:30N 50°48' E 001°04'713.1
2017-Nov-02 15:00N 50°52' E 001°12'612.6
2017-Nov-02 14:30N 50°56' E 001°20'612.1
2017-Nov-02 14:00N 51°00' E 001°26'611.4
2017-Nov-02 13:30N 51°04' E 001°32'510.6
2017-Nov-02 13:00N 51°08' E 001°38'510.2
2017-Nov-02 12:30N 51°12' E 001°44'5 9.8
2017-Nov-02 12:00N 51°16' E 001°48'5 9.9
2017-Nov-02 11:30N 51°20' E 001°52'510.2
2017-Nov-02 11:00N 51°25' E 001°55'611.0
2017-Nov-02 10:30N 51°29' E 002°00'611.5
2017-Nov-02 10:00N 51°34' E 002°06'4612.1
2017-Nov-02 06:14N 52°02' E 003°04'812.2
2017-Nov-02 05:34N 52°03' E 003°17'212.1
2017-Nov-02 05:23N 52°03' E 003°21'512.0
2017-Nov-02 05:00N 52°04' E 003°28'611.7
2017-Nov-02 04:30N 52°03' E 003°38'611.7
2017-Nov-02 04:00N 52°03' E 003°47'5 9.3
2017-Nov-02 03:30N 52°02' E 003°55'511.0
2017-Nov-02 03:00N 51°60' E 004°03'611.4
2017-Nov-02 02:30N 51°57' E 004°11'5 9.5
2017-Nov-02 02:00N 51°54' E 004°17'1 1.5
2017-Nov-02 01:30N 51°53' E 004°17'0 0.0
2017-Nov-02 00:59N 51°53' E 004°17'0 0.0
2017-Nov-02 00:29N 51°53' E 004°17'0 0.0
2017-Nov-01 23:59N 51°53' E 004°17'0 0.0
2017-Nov-01 23:29N 51°53' E 004°17'0 0.0
2017-Nov-01 22:59N 51°53' E 004°17'0 0.0
2017-Nov-01 22:29N 51°53' E 004°17'0 0.0
2017-Nov-01 21:53N 51°53' E 004°17'0 0.0
2017-Nov-01 21:26N 51°53' E 004°17'0 0.0
2017-Nov-01 20:56N 51°53' E 004°17'0 0.0
2017-Nov-01 20:29N 51°53' E 004°17'0 0.0
2017-Nov-01 19:53N 51°53' E 004°17'0 0.0
2017-Nov-01 19:29N 51°53' E 004°17'0 0.0
2017-Nov-01 18:59N 51°53' E 004°17'0 0.0
2017-Nov-01 18:29N 51°53' E 004°17'2 0.1
2017-Nov-01 01:58N 51°53' E 004°21'0 0.0
2017-Nov-01 01:28N 51°53' E 004°21'0 0.0
2017-Nov-01 00:58N 51°53' E 004°21'0 0.0
2017-Nov-01 00:28N 51°53' E 004°21'0 0.0
2017-Oct-31 23:58N 51°53' E 004°21'0 0.0
2017-Oct-31 23:28N 51°53' E 004°21'0 0.0
2017-Oct-31 22:58N 51°53' E 004°21'0 0.0
2017-Oct-31 22:28N 51°53' E 004°21'0 0.0
2017-Oct-31 21:58N 51°53' E 004°21'0 0.0
2017-Oct-31 21:25N 51°53' E 004°21'0 0.0
2017-Oct-31 20:58N 51°53' E 004°21'0 0.0
2017-Oct-31 20:28N 51°53' E 004°21'0 0.0
2017-Oct-31 19:58N 51°53' E 004°21'0 0.0
2017-Oct-31 19:22N 51°53' E 004°21'0 0.0
2017-Oct-31 18:58N 51°53' E 004°21'0 0.0
2017-Oct-31 18:28N 51°53' E 004°21'0 0.0
2017-Oct-31 17:58N 51°53' E 004°21'0 0.0
2017-Oct-31 17:28N 51°53' E 004°21'0 0.0
2017-Oct-31 16:58N 51°53' E 004°21'0 0.0
2017-Oct-31 16:25N 51°53' E 004°21'0 0.0
2017-Oct-31 15:58N 51°53' E 004°21'0 0.0
2017-Oct-31 15:28N 51°53' E 004°21'0 0.0
2017-Oct-31 14:58N 51°53' E 004°21'0 0.0
2017-Oct-31 14:28N 51°53' E 004°21'0 0.0
2017-Oct-31 13:58N 51°53' E 004°21'0 0.0
2017-Oct-31 13:28N 51°53' E 004°21'0 0.0
2017-Oct-31 12:58N 51°53' E 004°21'0 0.0
2017-Oct-31 12:28N 51°53' E 004°21'  

Dump ship's entire track history